Estación Meteorológica Peña el Pijo (Robertgarden) [ 02/03/23 03:50:06 CET ]

Fecha Hora Presion(HPa) Temp (°C) Humedad % Rocio (°C) Viento ( m/s) Direccion Lluvia 1Hora(mm) Lluvia 24H(mm) LLuvia Total(mm)
2012-Jan-09 01:01:13 1015.800 -1.1 64 -7.1         151.25
2012-Jan-09 02:05:09 1015.500 -1.8 64 -7.7         151.25
2012-Jan-09 03:10:06 1015.800 -2.9 66 -8.4         151.25
2012-Jan-09 04:01:44 1015.500 -2.7 65 -8.4         151.25
2012-Jan-09 05:01:47 1015.000 -3.2 65 -8.9         151.25
2012-Jan-09 06:09:07 1015.300 -3.8 67 -9.1         151.25
2012-Jan-09 07:01:16 1015.600 -4.5 67 -9.7         151.25
2012-Jan-09 08:01:14 1016.100 -4.7 68 -9.7         151.25
2012-Jan-09 09:01:16 1016.400 -5.3 70 -9.9         151.25
2012-Jan-09 10:01:13 1016.700 0.5 65 -5.3         151.25
2012-Jan-09 11:01:13 1017.000 8.1 41 -4.4         151.25
2012-Jan-09 12:01:18 1016.600 12.9 28 -5.3         151.25
2012-Jan-09 13:01:15 1015.900 14.5 24 -6.1 0.9 N     151.25
2012-Jan-09 14:01:14 1015.200 15.4 25 -4.8         151.25
2012-Jan-09 15:01:14 1015.200 14.9 28 -3.6 0.6 NNE     151.25
2012-Jan-09 16:01:21 1015.900 14.1 30 -3.2         151.25
2012-Jan-09 17:01:14 1016.400 11.0 38 -2.9         151.25
2012-Jan-09 18:01:13 1017.000 8.3 47 -2.4         151.25
2012-Jan-09 19:01:11 1017.800 4.6 55 -3.7         151.25
2012-Jan-09 20:01:13 1018.300 1.3 63 -5.0         151.25
2012-Jan-09 21:01:13 1018.700 -0.2 69 -5.2         151.25
2012-Jan-09 22:01:13 1018.900 -1.1 74 -5.2         151.25
2012-Jan-09 23:01:13 1019.100 -2.2 76 -5.9         151.25

Temperatura Máxima:15°    Temperatura Mínima:-5°
Presión Máxima:1019.100 Hpa    Presión Mínima:1015.000 Hpa


Volver